Time;durP1;ratioP1;P1;durP2;ratioP2;P2;SDS_P1;SDS_P2;PMS_P1;PMS_P2;Temp;Humidity;BMP_temperature;BMP_pressure;BME280_temperature;BME280_humidity;BME280_pressure;Samples;Min_cycle;Max_cycle;Signal;HPM_P1;HPM_P2
2022/10/26 00:14:36;;;;;;;23.58;4.18;;;;;;;;;;6085856;23;20048;-81
2022/10/26 00:17:04;;;;;;;5.25;3.70;;;;;;;;;;6110517;23;20010;-81
2022/10/26 00:19:36;;;;;;;5.15;3.20;;;;;;;;;;6100340;23;20029;-81
2022/10/26 00:22:07;;;;;;;3.55;3.25;;;;;;;;;;6109775;23;20017;-82
2022/10/26 00:24:35;;;;;;;4.40;4.00;;;;;;;;;;6111340;23;20433;-82
2022/10/26 00:27:03;;;;;;;14.15;3.63;;;;;;;;;;6131578;23;20018;-82
2022/10/26 00:29:30;;;;;;;5.63;4.13;;;;;;;;;;6110953;23;20010;-83
2022/10/26 00:32:01;;;;;;;4.40;4.00;;;;;;;;;;6128217;23;20040;-83
2022/10/26 00:34:29;;;;;;;8.80;3.35;;;;;;;;;;6108260;23;20033;-83
2022/10/26 00:37:24;;;;;;;3.47;3.10;;;;;;;;;;6100192;23;20022;-83
2022/10/26 00:44:56;;;;;;;4.60;3.60;;;;;;;;;;6126060;23;19917;-83
2022/10/26 00:47:39;;;;;;;3.25;3.03;;;;;;;;;;6092683;23;20029;-85
2022/10/26 00:50:14;;;;;;;4.35;2.92;;;;;;;;;;6110753;23;20010;-85
2022/10/26 00:52:42;;;;;;;3.80;3.38;;;;;;;;;;6108326;23;20041;-85
2022/10/26 00:55:10;;;;;;;6.80;3.35;;;;;;;;;;6105709;23;20044;-85
2022/10/26 00:57:39;;;;;;;8.18;3.42;;;;;;;;;;6135799;23;20030;-85
2022/10/26 01:00:09;;;;;;;3.55;3.22;;;;;;;;;;6127392;23;20029;-83
2022/10/26 01:02:38;;;;;;;3.27;3.00;;;;;;;;;;6076270;23;20025;-83
2022/10/26 03:36:22;;;;;;;1.75;1.55;;;;;;;;;;6077172;23;20045;-83
2022/10/26 03:38:49;;;;;;;2.90;1.98;;;;;;;;;;6058918;23;20011;-83
2022/10/26 04:42:11;;;;;;;3.08;2.47;;;;;;;;;;5966579;23;20019;-86
2022/10/26 04:45:29;;;;;;;2.50;2.30;;;;;;;;;;5931204;24;20036;-87
2022/10/26 04:48:29;;;;;;;4.85;3.75;;;;;;;;;;5832699;24;20494;-89
2022/10/26 05:03:47;;;;;;;;;;;;;;;;;;;;;
2022/10/26 05:27:28;;;;;;;2.85;2.65;;;;;;;;;;6034329;23;20022;-84
2022/10/26 05:37:37;;;;;;;4.18;2.47;;;;;;;;;;5885620;24;20066;-84
2022/10/26 05:40:25;;;;;;;2.30;2.10;;;;;;;;;;5857354;24;20033;-85
2022/10/26 05:44:01;;;;;;;3.75;2.38;;;;;;;;;;5830108;24;20033;-85
2022/10/26 05:47:16;;;;;;;2.15;1.75;;;;;;;;;;5953306;23;20020;-85
2022/10/26 05:51:27;;;;;;;2.08;1.88;;;;;;;;;;6000515;23;20017;-85
2022/10/26 06:05:52;;;;;;;;;;;;;;;;;;;;;
2022/10/26 06:17:07;;;;;;;;;;;;;;;;;;;;;
2022/10/26 07:15:54;;;;;;;2.83;2.58;;;;;;;;;;6033500;23;20038;-85
2022/10/26 07:18:27;;;;;;;3.70;2.15;;;;;;;;;;6019873;23;20026;-85
2022/10/26 12:46:50;;;;;;;1.80;1.48;;;;;;;;;;6072644;23;20454;-84
2022/10/26 12:50:48;;;;;;;6.78;2.33;;;;;;;;;;6071253;23;20025;-85
2022/10/26 12:54:40;;;;;;;2.33;1.77;;;;;;;;;;6057339;23;20018;-86
2022/10/26 12:57:27;;;;;;;7.45;1.52;;;;;;;;;;6082219;23;20018;-84
2022/10/26 13:00:13;;;;;;;5.53;1.95;;;;;;;;;;6073387;23;20030;-85
2022/10/26 13:03:09;;;;;;;2.92;0.93;;;;;;;;;;6034294;23;20023;-85
2022/10/26 13:06:19;;;;;;;11.43;2.35;;;;;;;;;;6074951;23;20030;-85
2022/10/26 13:09:05;;;;;;;3.55;2.30;;;;;;;;;;5979074;23;20030;-86
2022/10/26 13:12:28;;;;;;;1.98;1.10;;;;;;;;;;6051439;23;20031;-86
2022/10/26 13:15:27;;;;;;;9.65;1.83;;;;;;;;;;6025592;23;20037;-77
2022/10/26 13:18:01;;;;;;;3.38;1.23;;;;;;;;;;6104776;23;20778;-76
2022/10/26 13:20:30;;;;;;;3.00;2.50;;;;;;;;;;6095297;23;20350;-79
2022/10/26 13:22:57;;;;;;;5.13;1.38;;;;;;;;;;6101135;23;20026;-80
2022/10/26 13:25:27;;;;;;;2.03;1.60;;;;;;;;;;6078815;23;20438;-80
2022/10/26 13:28:03;;;;;;;5.72;3.33;;;;;;;;;;6097689;23;20026;-81
2022/10/26 13:40:36;;;;;;;2.25;1.35;;;;;;;;;;6036941;23;20346;-78
2022/10/26 13:43:05;;;;;;;5.53;3.33;;;;;;;;;;6071420;23;20026;-77
2022/10/26 13:45:45;;;;;;;4.00;1.63;;;;;;;;;;6075633;23;20423;-78
2022/10/26 13:48:18;;;;;;;3.67;1.97;;;;;;;;;;6066433;23;20033;-76
2022/10/26 13:50:51;;;;;;;13.52;1.98;;;;;;;;;;6071637;23;20023;-76
2022/10/26 13:53:39;;;;;;;5.47;1.52;;;;;;;;;;6049620;23;20026;-77
2022/10/26 13:56:26;;;;;;;8.05;3.72;;;;;;;;;;6041130;23;20022;-77
2022/10/26 13:59:02;;;;;;;2.95;1.45;;;;;;;;;;6071786;23;20023;-79
2022/10/26 14:01:30;;;;;;;8.13;1.77;;;;;;;;;;6041935;23;20355;-76
2022/10/26 14:03:58;;;;;;;3.03;1.02;;;;;;;;;;6069010;23;20031;-76
2022/10/26 14:06:36;;;;;;;9.77;1.10;;;;;;;;;;6041137;23;20023;-77
2022/10/26 14:09:05;;;;;;;2.10;1.83;;;;;;;;;;6077292;23;20011;-76
2022/10/26 14:11:42;;;;;;;5.82;1.83;;;;;;;;;;6069694;23;20015;-76
2022/10/26 14:14:14;;;;;;;4.63;1.65;;;;;;;;;;6040936;23;20025;-76
2022/10/26 14:16:45;;;;;;;4.97;1.92;;;;;;;;;;6051375;23;20069;-76
2022/10/26 14:19:14;;;;;;;6.10;1.98;;;;;;;;;;6072225;23;20029;-76
2022/10/26 14:21:48;;;;;;;6.20;1.67;;;;;;;;;;6076602;23;20015;-76
2022/10/26 14:24:23;;;;;;;5.22;1.95;;;;;;;;;;6067477;23;20035;-76
2022/10/26 14:27:15;;;;;;;3.28;1.25;;;;;;;;;;6070668;23;20027;-76
2022/10/26 14:29:44;;;;;;;12.07;2.15;;;;;;;;;;6076595;23;20015;-76
2022/10/26 14:32:25;;;;;;;6.97;2.38;;;;;;;;;;6066634;23;20030;-76
2022/10/26 14:34:52;;;;;;;10.32;3.72;;;;;;;;;;6072745;23;20343;-76
2022/10/26 14:37:40;;;;;;;6.65;2.53;;;;;;;;;;6075677;23;20282;-78
2022/10/26 14:40:18;;;;;;;8.18;3.90;;;;;;;;;;6051833;23;20038;-77
2022/10/26 14:42:51;;;;;;;4.10;1.92;;;;;;;;;;6071896;23;20014;-78
2022/10/26 14:45:19;;;;;;;5.28;2.53;;;;;;;;;;6076141;23;20602;-77
2022/10/26 14:48:07;;;;;;;5.47;2.42;;;;;;;;;;6068007;23;20034;-79
2022/10/26 14:50:35;;;;;;;2.72;2.53;;;;;;;;;;6073835;23;20030;-78
2022/10/26 14:53:05;;;;;;;5.05;2.28;;;;;;;;;;6041597;23;20023;-78
2022/10/26 15:15:16;;;;;;;5.07;2.03;;;;;;;;;;6065357;23;20023;-90
2022/10/26 17:16:23;;;;;;;10.02;2.67;;;;;;;;;;6101892;23;20031;-90
2022/10/26 18:44:44;;;;;;;26.60;4.35;;;;;;;;;;6123569;23;20778;-84
2022/10/26 18:47:48;;;;;;;3.55;2.83;;;;;;;;;;6108664;23;20026;-85
